Terminal Aerodrome Forecast
Issued by NWS Upton, NY

Home | Current Version | Previous Version | Text Only | Print | Product List | Glossary On
Versions: 1 2 3 4 5 6 7 8 9 10 11 12 13 14 15 16 17 18 19 20 21 22 23 24 25 26 27 28 29 30 31 32 33 34 35 36 37 38 39
145
FTUS41 KOKX 280541
TAFJFK
TAF
KJFK 280541Z 2806/2912 13006KT 1/2SM -DZ FG VV002
     FM280800 16006KT 1/2SM -DZ FG VV002
     FM281000 18006KT 1/2SM -DZ FG VV002
     FM281200 22006KT 1SM -DZ BR OVC005
     FM281400 24008KT P6SM FEW007 BKN060
     FM281600 23010KT P6SM SCT250
     FM281900 21014KT P6SM SCT250
     FM290000 23009KT P6SM SCT250
     FM290600 19006KT P6SM OVC150=

USA.gov is the U.S. government's official web portal to all federal, state and local government web resources and services.